Time;durP1;ratioP1;P1;durP2;ratioP2;P2;SDS_P1;SDS_P2;PMS_P1;PMS_P2;Temp;Humidity;BMP_temperature;BMP_pressure;BME280_temperature;BME280_humidity;BME280_pressure;Samples;Min_cycle;Max_cycle;Signal;HPM_P1;HPM_P2
2022/04/14 00:00:23;;;;;;;12.15;6.28;;;;;;;;;;4969871;28;20189;-80
2022/04/14 00:02:49;;;;;;;17.90;7.13;;;;;;;;;;4971682;28;20029;-79
2022/04/14 00:05:15;;;;;;;15.00;6.25;;;;;;;;;;4975610;28;20117;-79
2022/04/14 00:07:41;;;;;;;14.82;6.43;;;;;;;;;;4960942;28;20046;-79
2022/04/14 00:10:07;;;;;;;13.43;6.80;;;;;;;;;;4976359;28;20035;-80
2022/04/14 00:12:33;;;;;;;14.10;6.97;;;;;;;;;;4962523;28;20367;-79
2022/04/14 00:15:00;;;;;;;18.73;7.00;;;;;;;;;;4978858;28;20033;-79
2022/04/14 00:17:28;;;;;;;18.98;7.80;;;;;;;;;;4973357;28;20494;-79
2022/04/14 00:19:54;;;;;;;12.65;7.18;;;;;;;;;;4978839;28;20034;-80
2022/04/14 00:22:20;;;;;;;14.52;6.85;;;;;;;;;;4969622;28;20045;-79
2022/04/14 00:24:46;;;;;;;17.83;7.38;;;;;;;;;;4978269;28;20503;-80
2022/04/14 00:27:12;;;;;;;17.95;7.70;;;;;;;;;;4970191;28;20152;-80
2022/04/14 00:29:38;;;;;;;15.20;7.45;;;;;;;;;;4976999;28;20030;-81
2022/04/14 00:32:04;;;;;;;21.33;8.15;;;;;;;;;;4962860;28;20042;-79
2022/04/14 00:34:30;;;;;;;22.95;8.05;;;;;;;;;;4961378;28;20031;-80
2022/04/14 00:36:56;;;;;;;18.67;9.25;;;;;;;;;;4960781;28;20111;-80
2022/04/14 00:39:22;;;;;;;23.55;8.93;;;;;;;;;;4972030;28;20032;-80
2022/04/14 00:41:48;;;;;;;18.92;8.77;;;;;;;;;;4963382;28;20029;-80
2022/04/14 00:44:14;;;;;;;22.23;9.38;;;;;;;;;;4962342;28;20453;-80
2022/04/14 00:46:40;;;;;;;15.40;8.45;;;;;;;;;;4980487;28;20023;-80
2022/04/14 00:49:06;;;;;;;20.30;8.82;;;;;;;;;;4958530;28;20042;-80
2022/04/14 00:51:32;;;;;;;19.92;8.13;;;;;;;;;;4958410;28;20042;-80
2022/04/14 00:53:59;;;;;;;18.00;9.55;;;;;;;;;;4958824;28;20426;-80
2022/04/14 00:56:38;;;;;;;19.38;8.52;;;;;;;;;;4977854;28;20399;-79
2022/04/14 00:59:04;;;;;;;22.02;9.32;;;;;;;;;;4960216;28;20066;-80
2022/04/14 01:01:30;;;;;;;23.25;10.73;;;;;;;;;;4980345;28;20030;-80
2022/04/14 01:03:58;;;;;;;18.75;9.38;;;;;;;;;;4976010;28;20421;-80
2022/04/14 01:06:25;;;;;;;24.67;9.65;;;;;;;;;;4971729;28;20039;-80
2022/04/14 01:11:36;;;;;;;24.33;10.02;;;;;;;;;;4981115;28;20090;-80
2022/04/14 01:14:03;;;;;;;22.40;9.90;;;;;;;;;;4979234;28;20054;-80
2022/04/14 01:16:29;;;;;;;20.27;10.70;;;;;;;;;;4960893;28;20505;-80
2022/04/14 01:18:55;;;;;;;25.90;10.30;;;;;;;;;;4978254;28;20478;-80
2022/04/14 01:21:21;;;;;;;26.25;10.18;;;;;;;;;;4961374;28;20027;-79
2022/04/14 01:23:48;;;;;;;29.75;10.30;;;;;;;;;;4975226;28;20486;-80
2022/04/14 01:26:14;;;;;;;22.63;9.77;;;;;;;;;;4976361;28;20104;-80
2022/04/14 01:28:40;;;;;;;24.92;10.27;;;;;;;;;;4966840;28;20100;-80
2022/04/14 01:31:06;;;;;;;26.85;10.18;;;;;;;;;;4978789;28;20526;-80
2022/04/14 01:33:32;;;;;;;24.85;11.57;;;;;;;;;;4957776;28;20113;-80
2022/04/14 01:35:58;;;;;;;31.35;10.50;;;;;;;;;;4977684;28;20038;-80
2022/04/14 01:38:24;;;;;;;22.23;10.88;;;;;;;;;;4977430;28;20030;-81
2022/04/14 01:40:50;;;;;;;25.27;11.13;;;;;;;;;;4977997;28;20027;-80
2022/04/14 01:43:16;;;;;;;33.35;12.02;;;;;;;;;;4961728;28;20034;-80
2022/04/14 01:45:46;;;;;;;26.38;11.90;;;;;;;;;;4979601;28;20031;-80
2022/04/14 01:48:13;;;;;;;25.45;11.10;;;;;;;;;;4980806;28;20522;-80
2022/04/14 01:50:39;;;;;;;27.55;12.70;;;;;;;;;;4966306;28;20026;-80
2022/04/14 01:53:05;;;;;;;24.48;11.80;;;;;;;;;;4980996;28;20555;-79
2022/04/14 01:55:31;;;;;;;27.23;12.18;;;;;;;;;;4965600;28;20045;-80
2022/04/14 01:58:10;;;;;;;28.58;11.23;;;;;;;;;;4982010;28;20865;-79
2022/04/14 02:00:36;;;;;;;25.10;12.35;;;;;;;;;;4960131;28;20034;-80
2022/04/14 02:03:02;;;;;;;23.23;11.70;;;;;;;;;;4979358;28;20046;-79
2022/04/14 02:05:28;;;;;;;32.92;13.98;;;;;;;;;;4964144;28;20675;-80
2022/04/14 02:07:54;;;;;;;27.90;12.32;;;;;;;;;;4963258;28;20043;-79
2022/04/14 02:10:20;;;;;;;25.85;13.40;;;;;;;;;;4962539;28;20391;-80
2022/04/14 02:12:46;;;;;;;31.52;13.23;;;;;;;;;;4981697;28;20085;-80
2022/04/14 02:15:12;;;;;;;30.52;13.98;;;;;;;;;;4979518;28;20148;-80
2022/04/14 02:17:38;;;;;;;25.63;14.25;;;;;;;;;;4959615;28;20085;-80
2022/04/14 02:20:05;;;;;;;27.50;15.23;;;;;;;;;;4963881;28;20040;-80
2022/04/14 02:22:37;;;;;;;25.17;13.25;;;;;;;;;;4983565;28;20026;-80
2022/04/14 02:25:03;;;;;;;27.73;13.25;;;;;;;;;;4979211;28;20041;-80
2022/04/14 02:27:30;;;;;;;33.22;14.80;;;;;;;;;;4987764;28;20034;-80
2022/04/14 02:29:56;;;;;;;38.63;14.25;;;;;;;;;;4964986;28;20034;-80
2022/04/14 02:32:22;;;;;;;31.30;14.05;;;;;;;;;;4971687;28;20521;-80
2022/04/14 02:34:48;;;;;;;35.78;13.63;;;;;;;;;;4971636;28;20058;-80
2022/04/14 02:37:14;;;;;;;38.72;14.15;;;;;;;;;;4965921;28;20658;-80
2022/04/14 02:39:40;;;;;;;33.72;14.88;;;;;;;;;;4986308;28;20030;-80
2022/04/14 02:42:07;;;;;;;30.17;14.43;;;;;;;;;;4975429;28;20034;-80
2022/04/14 02:44:33;;;;;;;34.90;14.95;;;;;;;;;;4948579;28;20027;-80
2022/04/14 02:46:59;;;;;;;39.88;16.27;;;;;;;;;;4969470;28;20034;-80
2022/04/14 02:49:25;;;;;;;30.33;15.00;;;;;;;;;;4967433;28;20026;-80
2022/04/14 02:51:51;;;;;;;36.42;16.25;;;;;;;;;;4976593;28;20045;-80
2022/04/14 02:54:17;;;;;;;31.42;15.43;;;;;;;;;;4960086;28;20025;-80
2022/04/14 02:56:43;;;;;;;28.80;15.68;;;;;;;;;;4961001;28;20092;-80
2022/04/14 02:59:16;;;;;;;37.47;17.45;;;;;;;;;;4962654;28;20499;-80
2022/04/14 03:01:42;;;;;;;37.63;15.73;;;;;;;;;;4962233;28;20037;-79
2022/04/14 03:04:08;;;;;;;35.58;17.30;;;;;;;;;;4960570;28;20034;-80
2022/04/14 03:06:34;;;;;;;37.92;16.38;;;;;;;;;;4974363;28;20037;-80
2022/04/14 03:09:00;;;;;;;38.35;16.20;;;;;;;;;;4962559;28;20512;-80
2022/04/14 03:11:26;;;;;;;39.15;17.48;;;;;;;;;;4960577;28;20030;-80
2022/04/14 03:13:52;;;;;;;37.63;16.90;;;;;;;;;;4963338;28;20030;-80
2022/04/14 03:16:18;;;;;;;36.88;16.75;;;;;;;;;;4971253;28;20030;-80
2022/04/14 03:18:44;;;;;;;36.70;18.08;;;;;;;;;;4978106;28;20027;-80
2022/04/14 03:21:11;;;;;;;36.25;16.58;;;;;;;;;;4974378;28;20033;-80
2022/04/14 03:23:38;;;;;;;42.58;18.40;;;;;;;;;;4962788;28;20065;-80
2022/04/14 03:26:04;;;;;;;46.33;18.83;;;;;;;;;;4979552;28;20573;-80
2022/04/14 03:28:30;;;;;;;38.42;16.73;;;;;;;;;;4957906;28;20125;-80
2022/04/14 03:30:56;;;;;;;40.40;18.48;;;;;;;;;;4958533;28;20421;-80
2022/04/14 03:33:22;;;;;;;39.90;17.42;;;;;;;;;;4976716;28;20720;-80
2022/04/14 03:35:48;;;;;;;49.22;19.95;;;;;;;;;;4960992;28;20523;-79
2022/04/14 03:38:14;;;;;;;40.38;18.83;;;;;;;;;;4970572;28;20038;-80
2022/04/14 03:40:40;;;;;;;39.65;18.70;;;;;;;;;;4976616;28;20255;-80
2022/04/14 03:43:06;;;;;;;42.00;21.05;;;;;;;;;;4962271;28;20034;-80
2022/04/14 03:45:32;;;;;;;44.53;19.65;;;;;;;;;;4961334;28;20435;-80
2022/04/14 03:47:58;;;;;;;46.13;18.70;;;;;;;;;;4958282;28;20128;-80
2022/04/14 03:50:24;;;;;;;39.00;17.95;;;;;;;;;;4976914;28;20125;-80
2022/04/14 03:52:50;;;;;;;40.75;20.67;;;;;;;;;;4974574;28;20042;-79
2022/04/14 03:55:16;;;;;;;42.50;20.73;;;;;;;;;;4964251;28;20033;-80
2022/04/14 03:57:42;;;;;;;40.65;20.42;;;;;;;;;;4957738;28;20019;-80
2022/04/14 04:00:08;;;;;;;46.30;19.42;;;;;;;;;;4961146;28;20115;-80
2022/04/14 04:02:37;;;;;;;46.75;20.27;;;;;;;;;;4960818;28;20171;-80
2022/04/14 04:05:04;;;;;;;52.78;21.25;;;;;;;;;;4977326;28;20109;-80
2022/04/14 04:07:30;;;;;;;51.20;21.58;;;;;;;;;;4961002;28;20037;-80
2022/04/14 04:09:56;;;;;;;49.33;21.42;;;;;;;;;;4960752;28;20034;-80
2022/04/14 04:12:22;;;;;;;52.60;20.95;;;;;;;;;;4972763;28;20118;-80
2022/04/14 04:14:48;;;;;;;52.08;21.58;;;;;;;;;;4963282;28;20088;-80
2022/04/14 04:17:15;;;;;;;43.10;22.98;;;;;;;;;;4961399;28;20246;-80
2022/04/14 04:19:42;;;;;;;54.25;22.38;;;;;;;;;;4962541;28;20113;-80
2022/04/14 04:22:08;;;;;;;47.85;21.98;;;;;;;;;;4960082;28;20045;-80
2022/04/14 04:24:34;;;;;;;47.50;21.40;;;;;;;;;;4956398;28;20035;-80
2022/04/14 04:27:00;;;;;;;49.65;23.30;;;;;;;;;;4960830;28;20089;-80
2022/04/14 04:29:26;;;;;;;47.95;21.20;;;;;;;;;;4969874;28;20037;-80
2022/04/14 04:31:52;;;;;;;45.20;23.60;;;;;;;;;;4963582;28;20053;-79
2022/04/14 04:34:18;;;;;;;57.92;24.40;;;;;;;;;;4955758;28;20058;-80
2022/04/14 04:36:44;;;;;;;62.38;24.00;;;;;;;;;;4975118;28;20035;-80
2022/04/14 04:39:10;;;;;;;43.97;21.88;;;;;;;;;;4960874;28;20045;-80
2022/04/14 04:41:37;;;;;;;54.03;24.23;;;;;;;;;;4978346;28;20455;-80
2022/04/14 04:44:04;;;;;;;54.33;24.25;;;;;;;;;;4968963;28;20037;-80
2022/04/14 04:46:30;;;;;;;54.90;26.00;;;;;;;;;;4962250;28;20034;-80
2022/04/14 04:48:56;;;;;;;61.50;24.95;;;;;;;;;;4964018;28;20038;-80
2022/04/14 04:51:22;;;;;;;49.78;25.20;;;;;;;;;;4961373;28;20176;-80
2022/04/14 04:53:48;;;;;;;58.47;24.33;;;;;;;;;;4965939;28;20034;-80
2022/04/14 04:56:15;;;;;;;51.17;25.02;;;;;;;;;;4967606;28;20296;-80
2022/04/14 04:58:47;;;;;;;57.40;24.38;;;;;;;;;;4970252;28;20046;-80
2022/04/14 05:01:20;;;;;;;53.45;25.48;;;;;;;;;;4978956;28;20034;-80
2022/04/14 05:03:46;;;;;;;73.18;29.00;;;;;;;;;;4979442;28;20038;-80
2022/04/14 05:06:12;;;;;;;71.80;31.95;;;;;;;;;;4966208;28;20417;-80
2022/04/14 05:08:38;;;;;;;66.35;29.90;;;;;;;;;;4980702;28;20855;-80
2022/04/14 05:11:04;;;;;;;63.97;30.63;;;;;;;;;;4965465;28;20038;-80
2022/04/14 05:13:30;;;;;;;71.70;27.52;;;;;;;;;;4965557;28;21498;-81
2022/04/14 05:15:56;;;;;;;56.45;26.05;;;;;;;;;;4964746;28;20054;-80
2022/04/14 05:18:22;;;;;;;77.13;28.27;;;;;;;;;;4983494;28;20061;-80
2022/04/14 05:20:48;;;;;;;60.47;24.77;;;;;;;;;;4983661;28;20491;-80
2022/04/14 05:23:14;;;;;;;79.53;37.30;;;;;;;;;;4981917;28;20026;-80
2022/04/14 05:25:40;;;;;;;83.93;35.47;;;;;;;;;;4965265;28;20096;-80
2022/04/14 05:28:06;;;;;;;53.22;25.63;;;;;;;;;;4968485;28;20031;-80
2022/04/14 05:30:32;;;;;;;51.42;26.52;;;;;;;;;;4961830;28;21541;-80
2022/04/14 05:32:58;;;;;;;53.08;24.77;;;;;;;;;;4966348;28;20596;-80
2022/04/14 05:35:24;;;;;;;52.30;24.85;;;;;;;;;;4967057;28;20312;-80
2022/04/14 05:37:50;;;;;;;48.22;23.92;;;;;;;;;;4967221;28;20587;-80
2022/04/14 05:40:17;;;;;;;46.25;22.63;;;;;;;;;;4979584;28;20096;-80
2022/04/14 05:42:46;;;;;;;46.95;22.38;;;;;;;;;;4974508;28;20027;-80
2022/04/14 05:45:15;;;;;;;46.03;20.02;;;;;;;;;;4980136;28;20410;-80
2022/04/14 05:47:41;;;;;;;44.72;20.25;;;;;;;;;;4983402;28;20024;-80
2022/04/14 05:50:08;;;;;;;41.58;20.83;;;;;;;;;;4978262;28;20034;-79
2022/04/14 05:52:34;;;;;;;46.55;20.35;;;;;;;;;;4961415;28;20053;-79
2022/04/14 05:55:01;;;;;;;50.20;22.42;;;;;;;;;;4976917;28;20045;-80
2022/04/14 05:57:31;;;;;;;39.22;20.98;;;;;;;;;;4959900;28;20042;-80
2022/04/14 05:59:57;;;;;;;47.83;21.42;;;;;;;;;;4965558;28;20047;-80
2022/04/14 06:02:23;;;;;;;44.78;20.17;;;;;;;;;;4963103;28;21042;-80
2022/04/14 06:04:49;;;;;;;44.47;19.88;;;;;;;;;;4962688;28;20030;-79
2022/04/14 06:07:16;;;;;;;39.47;19.65;;;;;;;;;;4983257;28;20707;-80
2022/04/14 06:09:42;;;;;;;55.15;19.77;;;;;;;;;;4960845;28;20093;-80
2022/04/14 06:12:08;;;;;;;42.45;21.58;;;;;;;;;;4958574;28;20309;-80
2022/04/14 06:14:34;;;;;;;39.28;19.70;;;;;;;;;;4972347;28;20376;-80
2022/04/14 06:17:01;;;;;;;39.22;18.45;;;;;;;;;;4962213;28;20527;-80
2022/04/14 06:19:27;;;;;;;38.72;17.60;;;;;;;;;;4960843;28;20038;-80
2022/04/14 06:21:53;;;;;;;40.92;19.20;;;;;;;;;;4966781;28;20451;-80
2022/04/14 06:24:19;;;;;;;56.45;20.58;;;;;;;;;;4959179;28;20031;-80
2022/04/14 06:26:45;;;;;;;40.55;19.50;;;;;;;;;;4962815;28;20039;-80
2022/04/14 06:29:11;;;;;;;36.92;18.88;;;;;;;;;;4965483;28;20088;-80
2022/04/14 06:31:37;;;;;;;33.70;17.13;;;;;;;;;;4965566;28;20058;-79
2022/04/14 06:34:06;;;;;;;37.42;18.38;;;;;;;;;;4979239;28;20030;-80
2022/04/14 06:36:32;;;;;;;37.63;18.35;;;;;;;;;;4962913;28;20481;-80
2022/04/14 06:38:58;;;;;;;35.80;18.40;;;;;;;;;;4963265;28;20038;-79
2022/04/14 06:41:26;;;;;;;36.08;17.70;;;;;;;;;;4982379;28;20038;-80
2022/04/14 06:43:52;;;;;;;35.65;20.13;;;;;;;;;;4986509;28;20096;-79
2022/04/14 06:46:18;;;;;;;39.25;18.45;;;;;;;;;;4977171;28;20033;-79
2022/04/14 06:48:44;;;;;;;41.78;16.80;;;;;;;;;;4978567;28;20117;-80
2022/04/14 06:51:11;;;;;;;29.80;14.65;;;;;;;;;;4979933;28;20513;-80
2022/04/14 06:53:38;;;;;;;27.95;15.27;;;;;;;;;;4965699;28;20044;-80
2022/04/14 06:56:05;;;;;;;34.75;15.07;;;;;;;;;;4965173;28;20130;-80
2022/04/14 06:58:31;;;;;;;27.55;15.45;;;;;;;;;;4961504;28;20474;-80
2022/04/14 07:00:57;;;;;;;35.15;15.75;;;;;;;;;;4984318;28;20093;-80
2022/04/14 07:03:26;;;;;;;34.90;15.55;;;;;;;;;;4965406;28;20053;-80
2022/04/14 07:05:56;;;;;;;28.30;14.45;;;;;;;;;;4978692;28;20054;-80
2022/04/14 07:08:24;;;;;;;28.90;14.27;;;;;;;;;;4962034;28;20042;-80
2022/04/14 07:10:51;;;;;;;24.10;13.10;;;;;;;;;;4965697;28;20125;-79
2022/04/14 07:13:17;;;;;;;21.48;13.85;;;;;;;;;;4958704;28;20100;-80
2022/04/14 07:15:43;;;;;;;19.90;12.10;;;;;;;;;;4977330;28;20117;-80
2022/04/14 07:18:09;;;;;;;25.30;13.15;;;;;;;;;;4964111;28;20718;-79
2022/04/14 07:20:35;;;;;;;23.40;12.63;;;;;;;;;;4974988;28;20027;-80
2022/04/14 07:23:03;;;;;;;23.05;13.82;;;;;;;;;;4966093;28;20035;-80
2022/04/14 07:25:33;;;;;;;22.55;11.90;;;;;;;;;;4962700;28;20022;-80
2022/04/14 07:28:00;;;;;;;33.40;15.15;;;;;;;;;;4963447;28;20030;-80
2022/04/14 07:30:26;;;;;;;25.63;13.60;;;;;;;;;;4964370;28;20046;-80
2022/04/14 07:32:52;;;;;;;19.70;12.93;;;;;;;;;;4979157;28;20398;-80
2022/04/14 07:35:22;;;;;;;31.85;13.98;;;;;;;;;;4979719;28;20030;-80
2022/04/14 07:37:48;;;;;;;26.27;14.48;;;;;;;;;;4962919;28;20564;-80
2022/04/14 07:40:14;;;;;;;32.85;15.02;;;;;;;;;;4972298;28;20145;-80
2022/04/14 07:42:45;;;;;;;25.45;14.52;;;;;;;;;;4960867;28;20707;-80
2022/04/14 07:45:11;;;;;;;29.98;15.07;;;;;;;;;;4958344;28;20127;-80
2022/04/14 07:47:41;;;;;;;25.50;15.80;;;;;;;;;;4957427;28;20034;-80
2022/04/14 07:50:07;;;;;;;23.40;14.43;;;;;;;;;;4971929;28;20019;-80
2022/04/14 07:52:43;;;;;;;29.08;15.50;;;;;;;;;;4959624;28;20073;-80
2022/04/14 07:55:09;;;;;;;23.92;14.60;;;;;;;;;;4961880;28;20026;-80
2022/04/14 07:57:35;;;;;;;22.52;13.38;;;;;;;;;;4971027;28;20042;-80
2022/04/14 08:00:01;;;;;;;27.77;15.50;;;;;;;;;;4964195;28;20050;-82
2022/04/14 08:02:27;;;;;;;26.55;14.43;;;;;;;;;;4973880;28;20464;-82
2022/04/14 08:04:53;;;;;;;34.33;14.85;;;;;;;;;;4961244;28;20054;-82
2022/04/14 08:07:19;;;;;;;29.10;15.25;;;;;;;;;;4979245;28;20479;-82
2022/04/14 08:09:45;;;;;;;31.15;15.10;;;;;;;;;;4956355;28;20159;-82
2022/04/14 08:12:12;;;;;;;24.38;14.57;;;;;;;;;;4960574;28;20030;-82
2022/04/14 08:14:38;;;;;;;29.95;13.48;;;;;;;;;;4956955;28;20534;-80
2022/04/14 08:17:05;;;;;;;26.80;14.13;;;;;;;;;;4968684;28;20134;-79
2022/04/14 08:19:34;;;;;;;26.55;13.00;;;;;;;;;;4966604;28;20026;-80
2022/04/14 08:22:01;;;;;;;27.67;15.23;;;;;;;;;;4970436;28;20034;-80
2022/04/14 08:24:28;;;;;;;28.20;14.68;;;;;;;;;;4966855;28;20498;-80
2022/04/14 08:26:54;;;;;;;28.38;13.70;;;;;;;;;;4967253;28;20039;-80
2022/04/14 08:29:20;;;;;;;22.67;14.00;;;;;;;;;;4981335;28;20839;-80
2022/04/14 08:31:46;;;;;;;22.10;13.32;;;;;;;;;;4964140;28;20046;-80
2022/04/14 08:34:12;;;;;;;25.33;13.15;;;;;;;;;;4967016;28;20418;-79
2022/04/14 08:36:38;;;;;;;22.35;14.73;;;;;;;;;;4969728;28;20040;-80
2022/04/14 08:39:04;;;;;;;26.52;15.00;;;;;;;;;;4979468;28;20501;-80
2022/04/14 08:41:33;;;;;;;29.55;13.63;;;;;;;;;;4965260;28;20382;-79
2022/04/14 08:44:05;;;;;;;21.33;12.98;;;;;;;;;;4963188;28;20034;-80
2022/04/14 08:46:31;;;;;;;20.80;12.75;;;;;;;;;;4960489;28;20540;-80
2022/04/14 08:48:58;;;;;;;23.35;15.07;;;;;;;;;;4967686;28;20503;-80
2022/04/14 08:51:26;;;;;;;21.95;13.48;;;;;;;;;;4964894;28;20505;-80
2022/04/14 08:53:52;;;;;;;24.52;13.88;;;;;;;;;;4978845;28;20096;-80
2022/04/14 08:56:19;;;;;;;26.30;13.45;;;;;;;;;;4979284;28;20394;-80
2022/04/14 08:58:46;;;;;;;21.55;12.07;;;;;;;;;;4977826;28;20027;-80
2022/04/14 09:01:15;;;;;;;19.42;13.38;;;;;;;;;;4982882;28;20506;-80
2022/04/14 09:03:42;;;;;;;22.35;11.90;;;;;;;;;;4966315;28;20548;-80
2022/04/14 09:06:08;;;;;;;21.13;12.10;;;;;;;;;;4964383;28;20030;-80
2022/04/14 09:08:34;;;;;;;16.83;9.50;;;;;;;;;;4961906;28;20041;-80
2022/04/14 09:11:01;;;;;;;15.75;9.27;;;;;;;;;;4967234;28;20100;-80
2022/04/14 09:13:27;;;;;;;18.45;9.88;;;;;;;;;;4987447;28;20387;-80
2022/04/14 09:15:53;;;;;;;15.98;9.27;;;;;;;;;;4981267;28;20390;-80
2022/04/14 09:18:19;;;;;;;15.18;9.73;;;;;;;;;;4966284;28;20026;-80
2022/04/14 09:20:48;;;;;;;13.85;8.05;;;;;;;;;;4977752;28;20030;-80
2022/04/14 09:23:22;;;;;;;12.25;7.93;;;;;;;;;;4979821;28;20538;-80
2022/04/14 09:25:49;;;;;;;14.43;8.68;;;;;;;;;;4983516;28;20038;-80
2022/04/14 09:28:16;;;;;;;18.88;8.95;;;;;;;;;;4978989;28;20050;-82
2022/04/14 09:30:57;;;;;;;17.67;8.32;;;;;;;;;;4977107;28;20023;-83
2022/04/14 09:33:23;;;;;;;14.48;8.40;;;;;;;;;;4976034;28;20086;-80
2022/04/14 09:36:04;;;;;;;19.33;9.45;;;;;;;;;;4959532;28;20515;-80
2022/04/14 09:38:48;;;;;;;12.50;7.85;;;;;;;;;;4969433;28;20504;-80
2022/04/14 09:41:33;;;;;;;14.45;8.10;;;;;;;;;;4979907;28;20110;-80
2022/04/14 09:44:04;;;;;;;14.27;7.05;;;;;;;;;;4977439;28;20038;-80
2022/04/14 09:46:30;;;;;;;13.05;7.55;;;;;;;;;;4965132;28;20030;-80
2022/04/14 09:49:07;;;;;;;15.10;7.45;;;;;;;;;;4979314;28;20030;-80
2022/04/14 09:51:35;;;;;;;16.65;8.50;;;;;;;;;;4977366;28;20034;-80
2022/04/14 09:54:17;;;;;;;14.43;8.25;;;;;;;;;;4975425;28;20031;-80
2022/04/14 09:56:43;;;;;;;15.07;8.02;;;;;;;;;;4978756;28;20034;-80
2022/04/14 09:59:10;;;;;;;13.40;8.45;;;;;;;;;;4962543;28;21291;-80
2022/04/14 10:01:36;;;;;;;15.00;7.07;;;;;;;;;;4968185;28;20074;-80
2022/04/14 10:04:04;;;;;;;12.43;7.68;;;;;;;;;;4957732;28;20051;-79
2022/04/14 10:06:30;;;;;;;14.13;8.30;;;;;;;;;;4961577;28;20038;-80
2022/04/14 10:08:57;;;;;;;14.43;7.65;;;;;;;;;;4974402;28;20062;-80
2022/04/14 10:11:30;;;;;;;13.05;7.45;;;;;;;;;;4971095;28;20038;-80
2022/04/14 10:14:13;;;;;;;12.55;7.93;;;;;;;;;;4961043;28;20130;-80
2022/04/14 10:16:40;;;;;;;14.88;8.68;;;;;;;;;;4960747;28;20133;-80
2022/04/14 10:19:08;;;;;;;15.48;9.02;;;;;;;;;;4962160;28;20244;-80
2022/04/14 10:21:35;;;;;;;20.73;9.15;;;;;;;;;;4975536;28;20023;-80
2022/04/14 10:24:01;;;;;;;14.15;8.25;;;;;;;;;;4975284;28;20105;-80
2022/04/14 10:26:28;;;;;;;15.90;8.43;;;;;;;;;;4975827;28;20038;-80
2022/04/14 10:29:03;;;;;;;15.68;8.07;;;;;;;;;;4974923;28;20037;-80
2022/04/14 10:31:30;;;;;;;13.30;7.63;;;;;;;;;;4976476;28;20030;-80
2022/04/14 10:33:57;;;;;;;10.95;5.93;;;;;;;;;;4961530;28;20062;-80
2022/04/14 10:36:23;;;;;;;8.35;5.30;;;;;;;;;;4978998;28;20025;-80
2022/04/14 10:38:49;;;;;;;9.13;4.82;;;;;;;;;;4960602;28;20034;-80
2022/04/14 10:41:27;;;;;;;11.80;5.38;;;;;;;;;;4959962;28;20041;-80
2022/04/14 10:44:05;;;;;;;11.38;5.68;;;;;;;;;;4955941;28;20027;-80
2022/04/14 10:46:33;;;;;;;8.40;5.13;;;;;;;;;;4971011;28;20113;-80
2022/04/14 10:49:15;;;;;;;12.88;4.88;;;;;;;;;;4961097;28;20093;-79
2022/04/14 10:51:41;;;;;;;7.28;4.30;;;;;;;;;;4958643;28;20034;-80
2022/04/14 10:54:09;;;;;;;9.13;4.53;;;;;;;;;;4960393;28;20446;-80
2022/04/14 10:56:35;;;;;;;6.88;4.63;;;;;;;;;;4974581;28;20348;-80
2022/04/14 10:59:01;;;;;;;8.38;4.80;;;;;;;;;;4980061;28;20604;-80
2022/04/14 11:01:50;;;;;;;10.88;4.78;;;;;;;;;;4959461;28;20054;-80
2022/04/14 11:04:35;;;;;;;12.40;5.50;;;;;;;;;;4967502;28;20156;-80
2022/04/14 11:07:21;;;;;;;15.30;7.57;;;;;;;;;;4978235;28;20034;-80
2022/04/14 11:09:54;;;;;;;17.63;8.30;;;;;;;;;;4958435;28;20117;-80
2022/04/14 11:12:20;;;;;;;11.63;6.13;;;;;;;;;;4965417;28;20030;-79
2022/04/14 11:14:51;;;;;;;11.65;6.13;;;;;;;;;;4960324;28;20497;-80
2022/04/14 11:17:32;;;;;;;9.98;4.95;;;;;;;;;;4960348;28;20041;-80
2022/04/14 11:20:14;;;;;;;9.48;4.88;;;;;;;;;;4970156;28;20038;-79
2022/04/14 11:22:59;;;;;;;7.95;4.10;;;;;;;;;;4978258;28;20040;-80
2022/04/14 11:25:50;;;;;;;6.80;3.50;;;;;;;;;;4971623;28;20121;-80
2022/04/14 11:28:22;;;;;;;11.57;5.60;;;;;;;;;;4974970;28;20848;-80
2022/04/14 11:30:56;;;;;;;11.52;5.97;;;;;;;;;;4971709;28;20402;-80
2022/04/14 11:33:22;;;;;;;7.78;4.45;;;;;;;;;;4972195;28;20085;-80
2022/04/14 11:35:48;;;;;;;10.23;5.47;;;;;;;;;;4969500;28;20504;-80
2022/04/14 11:38:34;;;;;;;6.57;3.83;;;;;;;;;;4964059;28;20038;-80
2022/04/14 11:41:01;;;;;;;7.15;3.80;;;;;;;;;;4946248;28;20046;-80
2022/04/14 11:43:27;;;;;;;6.82;3.95;;;;;;;;;;4961209;28;20034;-80
2022/04/14 11:45:54;;;;;;;7.07;3.80;;;;;;;;;;4981123;28;20588;-80
2022/04/14 11:48:20;;;;;;;7.43;3.88;;;;;;;;;;4965718;28;20590;-79
2022/04/14 11:50:46;;;;;;;6.38;3.53;;;;;;;;;;4972465;28;20065;-80
2022/04/14 11:53:12;;;;;;;7.65;3.03;;;;;;;;;;4958163;28;20732;-80
2022/04/14 11:55:39;;;;;;;8.32;4.10;;;;;;;;;;4978680;28;20487;-80
2022/04/14 11:58:06;;;;;;;10.02;4.65;;;;;;;;;;4958378;28;20038;-80
2022/04/14 12:00:48;;;;;;;9.80;4.13;;;;;;;;;;4983343;28;20066;-80
2022/04/14 12:03:15;;;;;;;6.90;3.60;;;;;;;;;;4970490;28;20507;-80
2022/04/14 12:05:49;;;;;;;6.53;4.15;;;;;;;;;;4974702;28;20457;-80
2022/04/14 12:08:17;;;;;;;8.60;4.00;;;;;;;;;;4977674;28;20038;-80
2022/04/14 12:10:43;;;;;;;8.38;4.03;;;;;;;;;;4965383;28;20065;-80
2022/04/14 12:13:10;;;;;;;6.35;3.38;;;;;;;;;;4961299;28;20066;-80
2022/04/14 12:15:37;;;;;;;7.80;4.18;;;;;;;;;;4967087;28;20513;-79
2022/04/14 12:18:10;;;;;;;5.93;3.60;;;;;;;;;;4962685;28;20034;-80
2022/04/14 12:20:40;;;;;;;8.95;5.00;;;;;;;;;;4963718;28;20034;-80
2022/04/14 12:23:09;;;;;;;8.52;5.40;;;;;;;;;;4981271;28;20149;-80
2022/04/14 12:25:36;;;;;;;9.75;5.35;;;;;;;;;;4964031;28;20578;-80
2022/04/14 12:28:03;;;;;;;6.57;4.70;;;;;;;;;;4964873;28;20075;-80
2022/04/14 12:30:29;;;;;;;6.93;3.78;;;;;;;;;;4962209;28;20117;-80
2022/04/14 12:33:03;;;;;;;10.35;5.10;;;;;;;;;;4976101;28;20050;-80
2022/04/14 12:35:33;;;;;;;9.25;4.78;;;;;;;;;;4983611;28;20057;-80
2022/04/14 12:38:12;;;;;;;13.48;5.80;;;;;;;;;;4977776;28;20117;-80
2022/04/14 12:40:38;;;;;;;13.40;6.30;;;;;;;;;;4962277;28;20041;-80
2022/04/14 12:43:06;;;;;;;10.43;5.40;;;;;;;;;;4959774;28;20169;-80
2022/04/14 12:45:37;;;;;;;11.73;6.45;;;;;;;;;;4974584;28;20272;-80
2022/04/14 12:48:05;;;;;;;15.63;6.97;;;;;;;;;;4979100;28;20414;-80
2022/04/14 12:50:31;;;;;;;12.93;6.65;;;;;;;;;;4969983;28;20438;-80
2022/04/14 12:52:58;;;;;;;13.85;5.85;;;;;;;;;;4962822;28;20502;-80
2022/04/14 12:55:28;;;;;;;14.85;7.20;;;;;;;;;;4966035;28;20031;-80
2022/04/14 12:58:13;;;;;;;17.55;7.40;;;;;;;;;;4965292;28;20030;-80
2022/04/14 13:00:39;;;;;;;12.82;6.47;;;;;;;;;;4968996;28;20043;-80
2022/04/14 13:03:13;;;;;;;10.60;6.13;;;;;;;;;;4961859;28;20652;-80
2022/04/14 13:05:40;;;;;;;16.40;6.82;;;;;;;;;;4965862;28;20077;-80
2022/04/14 13:08:07;;;;;;;13.85;6.95;;;;;;;;;;4981151;28;20425;-80
2022/04/14 13:10:38;;;;;;;20.08;7.20;;;;;;;;;;4985233;28;20581;-80
2022/04/14 13:13:06;;;;;;;10.52;6.65;;;;;;;;;;4966621;28;20053;-79
2022/04/14 13:15:32;;;;;;;13.35;7.45;;;;;;;;;;4982428;28;20594;-80
2022/04/14 13:17:59;;;;;;;15.88;8.57;;;;;;;;;;4981792;28;20091;-80
2022/04/14 13:20:33;;;;;;;15.15;7.47;;;;;;;;;;4966072;28;20119;-80
2022/04/14 13:22:59;;;;;;;12.95;6.82;;;;;;;;;;4975430;28;20068;-80
2022/04/14 13:25:25;;;;;;;15.65;7.63;;;;;;;;;;4963474;28;20398;-80
2022/04/14 13:27:51;;;;;;;18.65;7.68;;;;;;;;;;4984707;28;20034;-80
2022/04/14 13:30:18;;;;;;;16.42;7.50;;;;;;;;;;4968735;28;20026;-82
2022/04/14 13:32:44;;;;;;;14.63;7.68;;;;;;;;;;4957146;28;20537;-82
2022/04/14 13:35:10;;;;;;;14.57;7.40;;;;;;;;;;4964365;28;21266;-82
2022/04/14 13:37:37;;;;;;;13.18;8.02;;;;;;;;;;4967022;28;20033;-82
2022/04/14 13:40:04;;;;;;;18.73;8.50;;;;;;;;;;4978714;28;20056;-79
2022/04/14 13:42:30;;;;;;;22.77;8.32;;;;;;;;;;4977790;28;20031;-80
2022/04/14 13:44:57;;;;;;;15.02;7.88;;;;;;;;;;4982153;28;20117;-80
2022/04/14 13:47:23;;;;;;;16.88;7.35;;;;;;;;;;4981191;28;20564;-80
2022/04/14 13:49:49;;;;;;;18.98;8.18;;;;;;;;;;4980115;28;20022;-79
2022/04/14 13:52:15;;;;;;;13.75;7.35;;;;;;;;;;4959747;28;20047;-80
2022/04/14 13:54:42;;;;;;;13.63;7.18;;;;;;;;;;4961876;28;20410;-80
2022/04/14 13:57:08;;;;;;;13.05;7.13;;;;;;;;;;4964262;28;20035;-80
2022/04/14 13:59:35;;;;;;;15.57;7.03;;;;;;;;;;4979584;28;20029;-80
2022/04/14 14:02:02;;;;;;;15.65;6.57;;;;;;;;;;4967992;28;20129;-80
2022/04/14 14:04:28;;;;;;;13.65;7.22;;;;;;;;;;4979384;28;20034;-80
2022/04/14 14:06:54;;;;;;;13.23;7.40;;;;;;;;;;4977805;28;20083;-80
2022/04/14 14:09:21;;;;;;;15.52;6.35;;;;;;;;;;4979370;28;20114;-80
2022/04/14 14:11:47;;;;;;;13.15;6.05;;;;;;;;;;4964483;28;20548;-80
2022/04/14 14:14:13;;;;;;;15.60;5.70;;;;;;;;;;4980071;28;20461;-80
2022/04/14 14:16:39;;;;;;;17.88;6.03;;;;;;;;;;4983199;28;20596;-79
2022/04/14 14:19:05;;;;;;;9.68;5.07;;;;;;;;;;4985741;28;20053;-79
2022/04/14 14:21:32;;;;;;;9.98;5.18;;;;;;;;;;4971306;28;20606;-80
2022/04/14 14:23:59;;;;;;;9.93;4.45;;;;;;;;;;4982008;28;20026;-80
2022/04/14 14:26:25;;;;;;;10.00;4.82;;;;;;;;;;4982878;28;20042;-80
2022/04/14 14:28:51;;;;;;;5.80;3.55;;;;;;;;;;4967344;28;20663;-80